Terminal Aerodrome Forecast
Issued by NWS

Home | Current Version | Previous Version | Text Only | Print | Product List | Glossary On
Versions: 1 2 3 4 5 6 7 8 9 10 11 12 13 14 15 16 17 18 19 20
051
FTUS41 KPBZ 220732 AAB
TAFAGC
TAF AMD
KAGC 220732Z 2208/2306 VRB05KT P6SM -SHRA OVC040
     FM221300 24007KT P6SM VCSH BKN035
     FM222300 21009KT 6SM -SHRA VCTS BKN035CB
     FM230200 21008KT P6SM BKN035
     FM230500 29008KT P6SM BKN020=

USA.gov is the U.S. government's official web portal to all federal, state and local government web resources and services.